Terminal Aerodrome Forecast
Issued by NWS

Home | Current Version | Previous Version | Text Only | Print | Product List | Glossary On
Versions: 1 2 3 4 5 6 7 8 9 10 11 12 13 14 15 16
000
FTUS43 KGRR 302300
TAFBTL
TAF
KBTL 302328Z 3100/3124 22012G20KT P6SM VCTS BKN040CB
     FM310100 24011G18KT 5SM -TSRA BR OVC035CB
     FM310230 22008KT P6SM OVC040
     FM310800 23005KT 5SM BR BKN025
     FM311000 24004KT 2SM BR OVC010
     FM311500 25006KT 5SM BR BKN020
     FM311800 26007KT P6SM BKN035=

USA.gov is the U.S. government's official web portal to all federal, state and local government web resources and services.